Cebollita Spring, Valles Caldera, New Mexico Weather observations

Data are for 10 minute period ending at time listed.
 Day   Time   Solar   Ave.   Ave.  Ave.  Vector  Max.   Baro.   Total    
  of    of     Rad.   Air    Rel.  Wind   Wind   Wind  Press.  Precip.   
Year   Day            Temp.  Hum.  Speed  Dir.   Gust                    
2014   (MST)  Kw/m2    F      %     mph   deg.    mph    mb.     in.     
-------------------------------------------------------------------------
 272   20:30   0.00   41.8    62    3.5    33     6.6   99999.0    0.00 
 272   20:40   0.00   41.3    62    4.6    38     9.0   99999.0    0.00 
 272   20:50   0.00   41.9    60    4.4     6    12.5   99999.0    0.00 
 272   21:00   0.00   43.1    57    4.1   320    13.1   99999.0    0.00 
 272   21:10   0.00   43.2    56    2.9   336     7.2   99999.0    0.00 
 272   21:20   0.00   41.7    61    2.2   316     6.0   99999.0    0.00 
 272   21:30   0.00   39.8    65    1.4   350     3.0   99999.0    0.00 
 272   21:40   0.00   38.0    70    2.3   346     4.2   99999.0    0.00 
 272   21:50   0.00   36.7    75    2.1   357     4.8   99999.0    0.00 
 272   22:00   0.00   35.6    81    1.9    22     3.0   99999.0    0.00 
 272   22:10   0.00   34.7    83    1.8    29     4.2   99999.0    0.00 
 272   22:20   0.00   33.7    85    1.3    56     3.6   99999.0    0.00 
 272   22:30   0.00   32.6    89    2.1    53     3.6   99999.0    0.00 
 272   22:40   0.00   31.9    90    0.7    76     3.0   99999.0    0.00 
 272   22:50   0.00   31.3    93    0.6    21     2.7   99999.0    0.00 
 272   23:00   0.00   30.9    94    2.0     0     4.2   99999.0    0.00 
 272   23:10   0.00   31.4    95    2.6   347     4.2   99999.0    0.00 
 272   23:20   0.00   31.7    95    2.8   349     4.8   99999.0    0.00 
 272   23:30   0.00   32.1    93    2.9   350     5.4   99999.0    0.00 
 272   23:40   0.00   32.3    90    2.6   356     6.0   99999.0    0.00 
 272   23:50   0.00   32.0    89    1.9   360     4.2   99999.0    0.00 
 273    0:00   0.00   32.1    90    2.1   358     4.2   99999.0    0.00 
 273    0:10   0.00   31.7    91    2.0   351     4.2   99999.0    0.00 
 273    0:20   0.00   31.3    91    1.8     0     4.2   99999.0    0.00 
 273    0:30   0.00   31.1    93    2.9   354     5.4   99999.0    0.00 
 273    0:40   0.00   31.5    93    3.0   351     4.8   99999.0    0.00 
 273    0:50   0.00   32.1    90    2.1   354     4.8   99999.0    0.00 
 273    1:00   0.00   32.1    90    1.7   351     3.6   99999.0    0.00 
 273    1:10   0.00   31.5    90    2.3   348     5.4   99999.0    0.00 
 273    1:20   0.00   31.1    93    2.7   351     4.5   99999.0    0.00 
 273    1:30   0.00   31.3    93    2.5   353     4.8   99999.0    0.00 
 273    1:40   0.00   31.3    92    2.8   352     5.4   99999.0    0.00 
 273    1:50   0.00   31.2    94    2.8   355     4.2   99999.0    0.00 
 273    2:00   0.00   31.1    93    3.0   348     4.8   99999.0    0.00 
 273    2:10   0.00   31.2    93    2.7   347     4.8   99999.0    0.00 
 273    2:20   0.00   31.0    94    3.0   346     4.8   99999.0    0.00 
 273    2:30   0.00   31.1    94    3.1   344     4.2   99999.0    0.00 
 273    2:40   0.00   31.2    93    3.2   350     5.4   99999.0    0.00 
 273    2:50   0.00   31.2    94    4.0   341     6.6   99999.0    0.00 
 273    3:00   0.00   31.5    92    4.0   341     6.0   99999.0    0.00 
 273    3:10   0.00   31.9    88    4.0   340     6.0   99999.0    0.00 
 273    3:20   0.00   32.2    86    3.8   343     6.6   99999.0    0.00 
 273    3:30   0.00   32.2    85    3.4   345     6.0   99999.0    0.00 
 273    3:40   0.00   32.3    84    2.9   346     4.8   99999.0    0.00 
 273    3:50   0.00   32.1    84    3.5   342     5.4   99999.0    0.00 
 273    4:00   0.00   31.6    86    3.9   343     6.0   99999.0    0.00 
 273    4:10   0.00   31.4    86    3.4   346     6.0   99999.0    0.00 
 273    4:20   0.00   32.0    83    3.6   349     5.4   99999.0    0.00 
 273    4:30   0.00   32.2    82    3.4   348     6.9   99999.0    0.00 
 273    4:40   0.00   31.7    84    2.7   354     4.8   99999.0    0.00 
 273    4:50   0.00   31.1    86    2.4   354     4.2   99999.0    0.00 
 273    5:00   0.00   30.3    88    2.9   354     6.0   99999.0    0.00 
 273    5:10   0.00   30.2    86    3.0   353     6.0   99999.0    0.00 
 273    5:20   0.00   30.9    84    3.0   354     5.4   99999.0    0.00 
 273    5:30   0.00   31.2    82    2.3    12     4.8   99999.0    0.00 
 273    5:40   0.00   30.1    86    1.7    11     3.0   99999.0    0.00 
 273    5:50   0.00   29.4    88    2.2   349     3.6   99999.0    0.00 
 273    6:00   0.00   29.2    88    1.6   354     3.0   99999.0    0.00 
 273    6:10   0.01   28.9    90    2.2   358     4.8   99999.0    0.00 
 273    6:20   0.01   28.9    92    2.8   348     4.8   99999.0    0.00 
 273    6:30   0.01   29.3    92    3.2   350     4.8   99999.0    0.00 
 273    6:40   0.04   31.2    86    3.6   352     6.0   99999.0    0.00 
 273    6:50   0.12   33.3    80    3.9   344     6.0   99999.0    0.00 
 273    7:00   0.09   35.3    73    4.1   338     6.6   99999.0    0.00 
 273    7:10   0.05   37.1    68    3.7   337     6.0   99999.0    0.00 
 273    7:20   0.24   39.2    64    4.0   326     7.8   99999.0    0.00 
 273    7:30   0.34   40.8    62    4.2   314     6.6   99999.0    0.00 
 273    7:40   0.38   42.7    58    4.8   304    10.2   99999.0    0.00 
 273    7:50   0.43   43.8    57    3.9   311     7.8   99999.0    0.00 
 273    8:00   0.47   45.0    55    4.8   323    10.2   99999.0    0.00 
 273    8:10   0.51   46.2    52    6.2   311    11.3   99999.0    0.00 
 273    8:20   0.54   47.4    50    6.2   310    11.3   99999.0    0.00 
 273    8:30   0.58   48.2    49    5.3   310    11.3   99999.0    0.00 
 273    8:40   0.61   49.0    47    5.1   304     9.6   99999.0    0.00 
 273    8:50   0.65   49.7    47    5.4   308    13.1   99999.0    0.00 
 273    9:00   0.68   50.5    46    5.6   299    11.9   99999.0    0.00 
 273    9:10   0.70   51.5    43    6.2   290    13.7   99999.0    0.00 
 273    9:20   0.73   51.8    42    6.7   300    13.7   99999.0    0.00 
 273    9:30   0.76   52.2    41    7.8   312    14.9   99999.0    0.00 
 273    9:40   0.78   53.2    39    6.6   299    13.7   99999.0    0.00 
 273    9:50   0.81   52.6    40    8.6   319    16.7   99999.0    0.00 
 273   10:00   0.83   52.8    39    8.7   301    16.1   99999.0    0.00 
 273   10:10   0.85   53.2    39    8.6   309    16.1   99999.0    0.00 
 273   10:20   0.87   53.8    38    8.4   297    17.3   99999.0    0.00 
 273   10:30   0.89   54.3    36    6.5   322    12.5   99999.0    0.00 
 273   10:40   0.90   54.9    36    6.2   294    11.3   99999.0    0.00 
 273   10:50   0.91   55.2    35    5.5   286    11.3   99999.0    0.00 
 273   11:00   0.92   55.9    36    6.3   304    13.1   99999.0    0.00 
 273   11:10   0.93   55.5    36    8.7   303    15.5   99999.0    0.00 
 273   11:20   0.94   56.1    36    7.5   264    13.1   99999.0    0.00 
 273   11:30   0.94   56.5    35    7.4   283    16.1   99999.0    0.00 
 273   11:40   0.95   56.3    34    8.3   276    17.9   99999.0    0.00 
 273   11:50   0.94   56.4    36    9.2   274    16.7   99999.0    0.00 
 273   12:00   0.95   56.5    35   10.2   294    22.7   99999.0    0.00 
 273   12:10   0.93   56.4    35    9.7   295    17.9   99999.0    0.00 
 273   12:20   0.95   57.4    35    9.6   260    17.3   99999.0    0.00 
 273   12:30   0.87   56.8    35   11.0   268    17.3   99999.0    0.00 
 273   12:40   0.93   56.9    36    9.2   267    18.5   99999.0    0.00 
 273   12:50   0.93   57.3    34    6.9   267    13.7   99999.0    0.00 
 273   13:00   0.93   58.2    35    8.4   292    16.7   99999.0    0.00 
 273   13:10   0.91   58.5    33    9.4   294    23.3   99999.0    0.00 
 273   13:20   0.89   59.1    32    6.4   289    13.7   99999.0    0.00 
 273   13:30   0.89   59.7    32    9.0   303    18.5   99999.0    0.00 
 273   13:40   0.85   58.6    32   10.9   283    20.0   99999.0    0.00 
 273   13:50   0.82   59.0    32    9.4   284    16.1   99999.0    0.00 
 273   14:00   0.79   59.2    31    9.4   296    17.3   99999.0    0.00 
 273   14:10   0.77   59.1    31    9.9   295    16.1   99999.0    0.00 
 273   14:20   0.74   59.2    31    8.6   286    17.0   99999.0    0.00 
 273   14:30   0.71   59.1    31    9.5   270    17.3   99999.0    0.00 
 273   14:40   0.68   59.5    31    9.4   280    19.1   99999.0    0.00 
 273   14:50   0.65   58.9    30   10.3   273    23.9   99999.0    0.00 
 273   15:00   0.61   59.3    30    9.4   274    19.1   99999.0    0.00 
 273   15:10   0.58   58.8    31    9.4   285    19.1   99999.0    0.00 
 273   15:20   0.51   58.6    31    9.6   292    19.7   99999.0    0.00 
 273   15:30   0.50   58.0    31   10.4   288    19.1   99999.0    0.00 
 273   15:40   0.47   58.1    31    9.1   257    16.1   99999.0    0.00 
 273   15:50   0.43   57.6    32    9.3   258    17.9   99999.0    0.00 
 273   16:00   0.39   57.4    32    9.0   285    16.1   99999.0    0.00 
 273   16:10   0.35   56.8    33    9.1   287    18.5   99999.0    0.00 
 273   16:20   0.31   57.0    33    7.9   278    16.1   99999.0    0.00 
 273   16:30   0.27   56.5    32    8.9   252    17.3   99999.0    0.00 
 273   16:40   0.23   55.9    34    8.7   272    19.1   99999.0    0.00 
 273   16:50   0.20   55.1    34    8.9   276    15.5   99999.0    0.00 
 273   17:00   0.17   54.7    35    9.1   262    15.5   99999.0    0.00 
 273   17:10   0.14   54.1    37    8.3   272    16.7   99999.0    0.00 
 273   17:20   0.10   53.3    39    7.5   283    15.5   99999.0    0.00 
 273   17:30   0.07   52.6    40    5.6   274    10.8   99999.0    0.00 
 273   17:40   0.05   51.8    42    4.5   276     7.8   99999.0    0.00 
 273   17:50   0.01   50.4    47    3.6   290     9.0   99999.0    0.00 
 273   18:00   0.00   49.3    49    3.8   298     8.4   99999.0    0.00 
 273   18:10   0.00   48.2    52    3.6   304     6.6   99999.0    0.00 
 273   18:20   0.00   46.6    58    3.4   308     5.4   99999.0    0.00 
 273   18:30   0.00   45.3    60    3.5   310     6.6   99999.0    0.00 
 273   18:40   0.00   44.2    62    4.0   313     7.2   99999.0    0.00 
 273   18:50   0.00   43.9    61    3.2   321     6.3   99999.0    0.00 
 273   19:00   0.00   43.5    62    3.5   340     7.2   99999.0    0.00 
 273   19:10   0.00   44.4    61    3.5   332     6.6   99999.0    0.00 
 273   19:20   0.00   44.0    62    3.6   339     6.6   99999.0    0.00 
 273   19:30   0.00   43.7    62    2.9   338     5.4   99999.0    0.00 
 273   19:40   0.00   43.0    64    3.4   343     7.2   99999.0    0.00 
 273   19:50   0.00   42.7    64    3.7   346     7.2   99999.0    0.00 
 273   20:00   0.00   42.5    66    3.4   340     6.0   99999.0    0.00 
 273   20:10   0.00   41.8    67    3.7   342     6.6   99999.0    0.00 
 273   20:20   0.00   41.0    70    2.7   344     4.8   99999.0    0.00 

Return to Cebollita Spring, Valles Caldera graphs page.


Western Regional Climate Center,wrcc@dri.edu